sensor_id;sensor_type;location;lat;lon;timestamp;temperature;humidity
68433;DHT22;55412;51.350;17.056;2023-07-22T00:00:12;18.30;69.70
68433;DHT22;55412;51.350;17.056;2023-07-22T00:02:41;18.20;70.70
68433;DHT22;55412;51.350;17.056;2023-07-22T00:05:09;18.20;71.00
68433;DHT22;55412;51.350;17.056;2023-07-22T00:07:38;18.10;71.30
68433;DHT22;55412;51.350;17.056;2023-07-22T00:10:07;18.10;70.80
68433;DHT22;55412;51.350;17.056;2023-07-22T00:12:36;18.00;71.40
68433;DHT22;55412;51.350;17.056;2023-07-22T00:15:03;18.00;71.90
68433;DHT22;55412;51.350;17.056;2023-07-22T00:17:29;18.10;68.20
68433;DHT22;55412;51.350;17.056;2023-07-22T00:19:55;18.30;66.00
68433;DHT22;55412;51.350;17.056;2023-07-22T00:22:21;18.50;66.10
68433;DHT22;55412;51.350;17.056;2023-07-22T00:24:48;18.60;64.70
68433;DHT22;55412;51.350;17.056;2023-07-22T00:27:14;18.70;63.50
68433;DHT22;55412;51.350;17.056;2023-07-22T00:29:40;18.80;63.30
68433;DHT22;55412;51.350;17.056;2023-07-22T00:32:07;18.80;67.30
68433;DHT22;55412;51.350;17.056;2023-07-22T00:34:34;18.80;64.70
68433;DHT22;55412;51.350;17.056;2023-07-22T00:37:02;18.80;64.80
68433;DHT22;55412;51.350;17.056;2023-07-22T00:39:28;18.80;67.40
68433;DHT22;55412;51.350;17.056;2023-07-22T00:41:55;18.70;64.80
68433;DHT22;55412;51.350;17.056;2023-07-22T00:44:21;18.70;63.50
68433;DHT22;55412;51.350;17.056;2023-07-22T00:46:47;18.80;62.90
68433;DHT22;55412;51.350;17.056;2023-07-22T00:49:14;18.90;62.90
68433;DHT22;55412;51.350;17.056;2023-07-22T00:51:42;18.90;62.10
68433;DHT22;55412;51.350;17.056;2023-07-22T00:54:08;18.90;61.60
68433;DHT22;55412;51.350;17.056;2023-07-22T00:56:36;19.00;62.40
68433;DHT22;55412;51.350;17.056;2023-07-22T00:59:02;19.00;61.40
68433;DHT22;55412;51.350;17.056;2023-07-22T01:01:28;19.00;61.50
68433;DHT22;55412;51.350;17.056;2023-07-22T01:03:55;19.00;61.20
68433;DHT22;55412;51.350;17.056;2023-07-22T01:06:23;18.90;61.20
68433;DHT22;55412;51.350;17.056;2023-07-22T01:08:51;19.00;61.90
68433;DHT22;55412;51.350;17.056;2023-07-22T01:11:17;19.00;62.80
68433;DHT22;55412;51.350;17.056;2023-07-22T01:13:43;19.00;63.30
68433;DHT22;55412;51.350;17.056;2023-07-22T01:16:09;18.90;62.20
68433;DHT22;55412;51.350;17.056;2023-07-22T01:18:37;18.90;61.80
68433;DHT22;55412;51.350;17.056;2023-07-22T01:21:05;18.90;62.40
68433;DHT22;55412;51.350;17.056;2023-07-22T01:23:32;18.90;62.80
68433;DHT22;55412;51.350;17.056;2023-07-22T01:25:59;18.90;62.10
68433;DHT22;55412;51.350;17.056;2023-07-22T01:28:26;18.80;61.80
68433;DHT22;55412;51.350;17.056;2023-07-22T01:30:52;18.80;62.10
68433;DHT22;55412;51.350;17.056;2023-07-22T01:33:20;18.80;61.40
68433;DHT22;55412;51.350;17.056;2023-07-22T01:35:46;18.80;61.20
68433;DHT22;55412;51.350;17.056;2023-07-22T01:38:12;18.80;61.70
68433;DHT22;55412;51.350;17.056;2023-07-22T01:40:38;18.80;61.40
68433;DHT22;55412;51.350;17.056;2023-07-22T01:43:04;18.80;61.50
68433;DHT22;55412;51.350;17.056;2023-07-22T01:45:30;18.80;61.60
68433;DHT22;55412;51.350;17.056;2023-07-22T01:47:58;18.80;62.00
68433;DHT22;55412;51.350;17.056;2023-07-22T01:50:24;18.80;61.90
68433;DHT22;55412;51.350;17.056;2023-07-22T01:52:50;18.70;61.90
68433;DHT22;55412;51.350;17.056;2023-07-22T01:55:16;18.70;62.00
68433;DHT22;55412;51.350;17.056;2023-07-22T01:57:42;18.70;61.60
68433;DHT22;55412;51.350;17.056;2023-07-22T02:00:09;18.70;61.10
68433;DHT22;55412;51.350;17.056;2023-07-22T02:02:37;18.60;61.10
68433;DHT22;55412;51.350;17.056;2023-07-22T02:05:03;18.60;61.40
68433;DHT22;55412;51.350;17.056;2023-07-22T02:07:29;18.60;61.50
68433;DHT22;55412;51.350;17.056;2023-07-22T02:09:56;18.60;61.00
68433;DHT22;55412;51.350;17.056;2023-07-22T02:12:22;18.60;61.20
68433;DHT22;55412;51.350;17.056;2023-07-22T02:14:48;18.60;61.70
68433;DHT22;55412;51.350;17.056;2023-07-22T02:17:15;18.60;61.80
68433;DHT22;55412;51.350;17.056;2023-07-22T02:19:41;18.60;61.60
68433;DHT22;55412;51.350;17.056;2023-07-22T02:22:07;18.60;61.60
68433;DHT22;55412;51.350;17.056;2023-07-22T02:24:33;18.50;61.90
68433;DHT22;55412;51.350;17.056;2023-07-22T02:27:00;18.50;62.30
68433;DHT22;55412;51.350;17.056;2023-07-22T02:29:26;18.50;62.80
68433;DHT22;55412;51.350;17.056;2023-07-22T02:31:52;18.50;63.30
68433;DHT22;55412;51.350;17.056;2023-07-22T02:34:18;18.50;63.10
68433;DHT22;55412;51.350;17.056;2023-07-22T02:36:45;18.50;62.60
68433;DHT22;55412;51.350;17.056;2023-07-22T02:39:11;18.50;62.70
68433;DHT22;55412;51.350;17.056;2023-07-22T02:41:37;18.50;63.20
68433;DHT22;55412;51.350;17.056;2023-07-22T02:44:03;18.40;63.00
68433;DHT22;55412;51.350;17.056;2023-07-22T02:46:29;18.40;63.80
68433;DHT22;55412;51.350;17.056;2023-07-22T02:48:55;18.40;64.30
68433;DHT22;55412;51.350;17.056;2023-07-22T02:51:21;18.40;64.60
68433;DHT22;55412;51.350;17.056;2023-07-22T02:53:47;18.40;63.90
68433;DHT22;55412;51.350;17.056;2023-07-22T02:56:14;18.40;64.00
68433;DHT22;55412;51.350;17.056;2023-07-22T02:58:40;18.40;64.50
68433;DHT22;55412;51.350;17.056;2023-07-22T03:01:07;18.40;63.50
68433;DHT22;55412;51.350;17.056;2023-07-22T03:03:36;18.40;64.20
68433;DHT22;55412;51.350;17.056;2023-07-22T03:06:03;18.40;63.70
68433;DHT22;55412;51.350;17.056;2023-07-22T03:08:30;18.40;64.20
68433;DHT22;55412;51.350;17.056;2023-07-22T03:10:56;18.40;64.60
68433;DHT22;55412;51.350;17.056;2023-07-22T03:13:22;18.30;64.80
68433;DHT22;55412;51.350;17.056;2023-07-22T03:15:48;18.30;64.30
68433;DHT22;55412;51.350;17.056;2023-07-22T03:18:14;18.30;64.90
68433;DHT22;55412;51.350;17.056;2023-07-22T03:20:40;18.30;64.20
68433;DHT22;55412;51.350;17.056;2023-07-22T03:23:07;18.20;65.00
68433;DHT22;55412;51.350;17.056;2023-07-22T03:25:34;18.20;64.60
68433;DHT22;55412;51.350;17.056;2023-07-22T03:28:03;18.20;65.00
68433;DHT22;55412;51.350;17.056;2023-07-22T03:30:31;18.20;65.30
68433;DHT22;55412;51.350;17.056;2023-07-22T03:32:59;18.10;65.20
68433;DHT22;55412;51.350;17.056;2023-07-22T03:35:26;18.10;65.60
68433;DHT22;55412;51.350;17.056;2023-07-22T03:37:53;18.10;66.20
68433;DHT22;55412;51.350;17.056;2023-07-22T03:40:20;18.00;65.80
68433;DHT22;55412;51.350;17.056;2023-07-22T03:42:51;18.00;66.20
68433;DHT22;55412;51.350;17.056;2023-07-22T03:45:18;17.90;66.60
68433;DHT22;55412;51.350;17.056;2023-07-22T03:47:46;17.90;66.90
68433;DHT22;55412;51.350;17.056;2023-07-22T03:50:16;18.00;65.70
68433;DHT22;55412;51.350;17.056;2023-07-22T03:52:42;18.00;66.40
68433;DHT22;55412;51.350;17.056;2023-07-22T03:55:09;18.10;65.20
68433;DHT22;55412;51.350;17.056;2023-07-22T03:57:36;18.20;64.60
68433;DHT22;55412;51.350;17.056;2023-07-22T04:00:02;18.20;65.80
68433;DHT22;55412;51.350;17.056;2023-07-22T04:02:31;18.20;65.80
68433;DHT22;55412;51.350;17.056;2023-07-22T04:04:57;18.20;66.70
68433;DHT22;55412;51.350;17.056;2023-07-22T04:07:23;18.20;66.00
68433;DHT22;55412;51.350;17.056;2023-07-22T04:09:49;18.20;65.10
68433;DHT22;55412;51.350;17.056;2023-07-22T04:12:16;18.20;66.10
68433;DHT22;55412;51.350;17.056;2023-07-22T04:14:42;18.30;66.10
68433;DHT22;55412;51.350;17.056;2023-07-22T04:17:08;18.40;64.80
68433;DHT22;55412;51.350;17.056;2023-07-22T04:19:35;18.50;65.00
68433;DHT22;55412;51.350;17.056;2023-07-22T04:22:02;18.60;65.10
68433;DHT22;55412;51.350;17.056;2023-07-22T04:24:33;18.70;64.10
68433;DHT22;55412;51.350;17.056;2023-07-22T04:27:00;18.80;65.10
68433;DHT22;55412;51.350;17.056;2023-07-22T04:29:27;18.80;63.40
68433;DHT22;55412;51.350;17.056;2023-07-22T04:31:57;18.90;63.40
68433;DHT22;55412;51.350;17.056;2023-07-22T04:34:28;19.00;64.20
68433;DHT22;55412;51.350;17.056;2023-07-22T04:36:55;19.10;62.50
68433;DHT22;55412;51.350;17.056;2023-07-22T04:39:21;19.20;61.50
68433;DHT22;55412;51.350;17.056;2023-07-22T04:41:48;19.30;62.00
68433;DHT22;55412;51.350;17.056;2023-07-22T04:44:16;19.50;61.60
68433;DHT22;55412;51.350;17.056;2023-07-22T04:46:43;19.60;61.00
68433;DHT22;55412;51.350;17.056;2023-07-22T04:49:10;19.70;61.30
68433;DHT22;55412;51.350;17.056;2023-07-22T04:51:36;19.80;61.20
68433;DHT22;55412;51.350;17.056;2023-07-22T04:54:02;19.90;61.10
68433;DHT22;55412;51.350;17.056;2023-07-22T04:56:28;19.90;60.30
68433;DHT22;55412;51.350;17.056;2023-07-22T04:58:54;20.00;59.70
68433;DHT22;55412;51.350;17.056;2023-07-22T05:01:20;20.10;59.50
68433;DHT22;55412;51.350;17.056;2023-07-22T05:03:46;20.20;60.90
68433;DHT22;55412;51.350;17.056;2023-07-22T05:06:13;20.30;58.80
68433;DHT22;55412;51.350;17.056;2023-07-22T05:08:39;20.40;61.40
68433;DHT22;55412;51.350;17.056;2023-07-22T05:11:07;20.30;63.20
68433;DHT22;55412;51.350;17.056;2023-07-22T05:13:33;20.10;62.00
68433;DHT22;55412;51.350;17.056;2023-07-22T05:15:59;20.10;65.00
68433;DHT22;55412;51.350;17.056;2023-07-22T05:18:25;20.10;64.60
68433;DHT22;55412;51.350;17.056;2023-07-22T05:20:51;20.10;62.30
68433;DHT22;55412;51.350;17.056;2023-07-22T05:23:17;20.20;63.10
68433;DHT22;55412;51.350;17.056;2023-07-22T05:25:44;20.40;62.20
68433;DHT22;55412;51.350;17.056;2023-07-22T05:28:10;20.60;60.10
68433;DHT22;55412;51.350;17.056;2023-07-22T05:30:36;20.80;61.10
68433;DHT22;55412;51.350;17.056;2023-07-22T05:33:02;20.90;61.20
68433;DHT22;55412;51.350;17.056;2023-07-22T05:35:29;21.10;58.60
68433;DHT22;55412;51.350;17.056;2023-07-22T05:37:55;21.10;58.70
68433;DHT22;55412;51.350;17.056;2023-07-22T05:40:21;21.20;58.80
68433;DHT22;55412;51.350;17.056;2023-07-22T05:42:48;21.30;58.10
68433;DHT22;55412;51.350;17.056;2023-07-22T05:45:14;21.50;59.40
68433;DHT22;55412;51.350;17.056;2023-07-22T05:47:41;21.70;59.20
68433;DHT22;55412;51.350;17.056;2023-07-22T05:50:08;22.10;57.40
68433;DHT22;55412;51.350;17.056;2023-07-22T05:52:34;22.30;56.00
68433;DHT22;55412;51.350;17.056;2023-07-22T05:55:00;22.60;57.20
68433;DHT22;55412;51.350;17.056;2023-07-22T05:57:27;23.00;56.80
68433;DHT22;55412;51.350;17.056;2023-07-22T05:59:53;23.20;55.50
68433;DHT22;55412;51.350;17.056;2023-07-22T06:02:19;23.40;55.00
68433;DHT22;55412;51.350;17.056;2023-07-22T06:04:45;23.60;54.70
68433;DHT22;55412;51.350;17.056;2023-07-22T06:07:11;23.80;53.70
68433;DHT22;55412;51.350;17.056;2023-07-22T06:09:37;23.90;53.10
68433;DHT22;55412;51.350;17.056;2023-07-22T06:12:04;24.10;53.20
68433;DHT22;55412;51.350;17.056;2023-07-22T06:14:30;24.30;52.80
68433;DHT22;55412;51.350;17.056;2023-07-22T06:16:57;24.50;52.80
68433;DHT22;55412;51.350;17.056;2023-07-22T06:19:23;24.70;51.60
68433;DHT22;55412;51.350;17.056;2023-07-22T06:21:49;24.80;50.80
68433;DHT22;55412;51.350;17.056;2023-07-22T06:24:16;24.80;50.30
68433;DHT22;55412;51.350;17.056;2023-07-22T06:26:42;24.90;51.30
68433;DHT22;55412;51.350;17.056;2023-07-22T06:29:08;25.00;51.00
68433;DHT22;55412;51.350;17.056;2023-07-22T06:31:34;25.10;50.60
68433;DHT22;55412;51.350;17.056;2023-07-22T06:34:01;25.30;49.50
68433;DHT22;55412;51.350;17.056;2023-07-22T06:36:27;25.30;49.40
68433;DHT22;55412;51.350;17.056;2023-07-22T06:38:53;25.40;49.10
68433;DHT22;55412;51.350;17.056;2023-07-22T06:41:20;25.50;48.60
68433;DHT22;55412;51.350;17.056;2023-07-22T06:43:48;25.50;48.80
68433;DHT22;55412;51.350;17.056;2023-07-22T06:46:16;25.50;48.40
68433;DHT22;55412;51.350;17.056;2023-07-22T06:48:42;25.60;48.60
68433;DHT22;55412;51.350;17.056;2023-07-22T06:51:08;25.60;48.10
68433;DHT22;55412;51.350;17.056;2023-07-22T06:53:34;25.70;47.90
68433;DHT22;55412;51.350;17.056;2023-07-22T06:56:00;25.70;47.50
68433;DHT22;55412;51.350;17.056;2023-07-22T06:58:26;25.70;47.70
68433;DHT22;55412;51.350;17.056;2023-07-22T07:00:56;25.60;47.70
68433;DHT22;55412;51.350;17.056;2023-07-22T07:03:22;25.60;47.10
68433;DHT22;55412;51.350;17.056;2023-07-22T07:05:55;25.40;47.90
68433;DHT22;55412;51.350;17.056;2023-07-22T07:08:22;25.40;47.30
68433;DHT22;55412;51.350;17.056;2023-07-22T07:10:50;25.20;47.60
68433;DHT22;55412;51.350;17.056;2023-07-22T07:13:17;25.20;48.00
68433;DHT22;55412;51.350;17.056;2023-07-22T07:15:46;25.10;48.40
68433;DHT22;55412;51.350;17.056;2023-07-22T07:18:16;25.00;48.40
68433;DHT22;55412;51.350;17.056;2023-07-22T07:20:43;25.00;48.10
68433;DHT22;55412;51.350;17.056;2023-07-22T07:23:10;25.00;48.60
68433;DHT22;55412;51.350;17.056;2023-07-22T07:25:36;24.90;49.20
68433;DHT22;55412;51.350;17.056;2023-07-22T07:28:03;24.80;48.10
68433;DHT22;55412;51.350;17.056;2023-07-22T07:30:30;24.70;48.60
68433;DHT22;55412;51.350;17.056;2023-07-22T07:32:57;24.70;48.60
68433;DHT22;55412;51.350;17.056;2023-07-22T07:35:23;24.70;49.90
68433;DHT22;55412;51.350;17.056;2023-07-22T07:37:50;24.70;49.20
68433;DHT22;55412;51.350;17.056;2023-07-22T07:40:16;24.70;50.10
68433;DHT22;55412;51.350;17.056;2023-07-22T07:42:42;24.70;49.40
68433;DHT22;55412;51.350;17.056;2023-07-22T07:45:08;24.80;49.00
68433;DHT22;55412;51.350;17.056;2023-07-22T07:47:35;24.80;48.30
68433;DHT22;55412;51.350;17.056;2023-07-22T07:50:02;24.70;48.80
68433;DHT22;55412;51.350;17.056;2023-07-22T07:52:28;24.70;48.80
68433;DHT22;55412;51.350;17.056;2023-07-22T07:54:54;24.70;48.10
68433;DHT22;55412;51.350;17.056;2023-07-22T07:57:21;24.70;47.90
68433;DHT22;55412;51.350;17.056;2023-07-22T07:59:47;24.70;48.60
68433;DHT22;55412;51.350;17.056;2023-07-22T08:02:13;24.60;47.70
68433;DHT22;55412;51.350;17.056;2023-07-22T08:04:39;24.30;47.90
68433;DHT22;55412;51.350;17.056;2023-07-22T08:07:06;24.10;48.20
68433;DHT22;55412;51.350;17.056;2023-07-22T08:09:32;23.90;49.10
68433;DHT22;55412;51.350;17.056;2023-07-22T08:11:58;23.70;49.80
68433;DHT22;55412;51.350;17.056;2023-07-22T08:14:25;23.60;49.70
68433;DHT22;55412;51.350;17.056;2023-07-22T08:16:51;23.60;49.40
68433;DHT22;55412;51.350;17.056;2023-07-22T08:19:17;23.60;50.10
68433;DHT22;55412;51.350;17.056;2023-07-22T08:21:43;23.60;49.50
68433;DHT22;55412;51.350;17.056;2023-07-22T08:24:09;23.60;48.80
68433;DHT22;55412;51.350;17.056;2023-07-22T08:26:35;23.60;49.00
68433;DHT22;55412;51.350;17.056;2023-07-22T08:29:02;23.60;49.70
68433;DHT22;55412;51.350;17.056;2023-07-22T08:31:28;23.60;48.50
68433;DHT22;55412;51.350;17.056;2023-07-22T08:33:54;23.60;48.60
68433;DHT22;55412;51.350;17.056;2023-07-22T08:36:20;23.50;49.30
68433;DHT22;55412;51.350;17.056;2023-07-22T08:38:46;23.50;49.70
68433;DHT22;55412;51.350;17.056;2023-07-22T08:41:16;23.40;49.90
68433;DHT22;55412;51.350;17.056;2023-07-22T08:43:45;23.40;49.20
68433;DHT22;55412;51.350;17.056;2023-07-22T08:46:19;23.40;48.60
68433;DHT22;55412;51.350;17.056;2023-07-22T08:48:53;23.40;49.20
68433;DHT22;55412;51.350;17.056;2023-07-22T08:51:20;23.40;49.20
68433;DHT22;55412;51.350;17.056;2023-07-22T08:53:49;23.40;48.20
68433;DHT22;55412;51.350;17.056;2023-07-22T08:56:16;23.50;48.20
68433;DHT22;55412;51.350;17.056;2023-07-22T08:58:44;23.50;48.30
68433;DHT22;55412;51.350;17.056;2023-07-22T09:01:11;23.50;48.60
68433;DHT22;55412;51.350;17.056;2023-07-22T09:03:39;23.50;48.60
68433;DHT22;55412;51.350;17.056;2023-07-22T09:06:06;23.50;48.90
68433;DHT22;55412;51.350;17.056;2023-07-22T09:08:33;23.60;49.10
68433;DHT22;55412;51.350;17.056;2023-07-22T09:11:01;23.60;48.60
68433;DHT22;55412;51.350;17.056;2023-07-22T09:13:28;23.70;48.00
68433;DHT22;55412;51.350;17.056;2023-07-22T09:15:57;23.60;47.00
68433;DHT22;55412;51.350;17.056;2023-07-22T09:18:27;23.60;47.30
68433;DHT22;55412;51.350;17.056;2023-07-22T09:20:53;23.60;47.70
68433;DHT22;55412;51.350;17.056;2023-07-22T09:23:35;23.60;48.40
68433;DHT22;55412;51.350;17.056;2023-07-22T09:26:14;23.60;46.80
68433;DHT22;55412;51.350;17.056;2023-07-22T09:28:55;23.50;47.80
68433;DHT22;55412;51.350;17.056;2023-07-22T09:31:26;23.40;47.00
68433;DHT22;55412;51.350;17.056;2023-07-22T09:33:54;23.30;47.70
68433;DHT22;55412;51.350;17.056;2023-07-22T09:36:24;23.30;48.90
68433;DHT22;55412;51.350;17.056;2023-07-22T09:39:00;23.20;47.90
68433;DHT22;55412;51.350;17.056;2023-07-22T09:41:33;23.20;47.50
68433;DHT22;55412;51.350;17.056;2023-07-22T09:44:03;23.20;47.00
68433;DHT22;55412;51.350;17.056;2023-07-22T09:46:33;23.20;47.30
68433;DHT22;55412;51.350;17.056;2023-07-22T09:49:03;23.20;46.60
68433;DHT22;55412;51.350;17.056;2023-07-22T09:51:38;23.10;45.90
68433;DHT22;55412;51.350;17.056;2023-07-22T09:54:05;23.00;46.30
68433;DHT22;55412;51.350;17.056;2023-07-22T09:56:44;23.00;47.50
68433;DHT22;55412;51.350;17.056;2023-07-22T09:59:11;23.00;46.70
68433;DHT22;55412;51.350;17.056;2023-07-22T10:01:39;22.90;46.00
68433;DHT22;55412;51.350;17.056;2023-07-22T10:04:07;22.90;46.00
68433;DHT22;55412;51.350;17.056;2023-07-22T10:06:34;22.90;45.80
68433;DHT22;55412;51.350;17.056;2023-07-22T10:09:04;22.90;46.70
68433;DHT22;55412;51.350;17.056;2023-07-22T10:11:38;22.90;46.80
68433;DHT22;55412;51.350;17.056;2023-07-22T10:14:12;22.90;46.90
68433;DHT22;55412;51.350;17.056;2023-07-22T10:16:40;23.00;45.70
68433;DHT22;55412;51.350;17.056;2023-07-22T10:19:09;22.90;45.80
68433;DHT22;55412;51.350;17.056;2023-07-22T10:21:38;22.90;46.20
68433;DHT22;55412;51.350;17.056;2023-07-22T10:24:04;22.90;47.10
68433;DHT22;55412;51.350;17.056;2023-07-22T10:26:32;22.80;46.60
68433;DHT22;55412;51.350;17.056;2023-07-22T10:28:58;22.80;47.00
68433;DHT22;55412;51.350;17.056;2023-07-22T10:31:25;22.80;46.50
68433;DHT22;55412;51.350;17.056;2023-07-22T10:33:57;22.80;46.00
68433;DHT22;55412;51.350;17.056;2023-07-22T10:36:29;22.70;46.40
68433;DHT22;55412;51.350;17.056;2023-07-22T10:38:57;22.80;47.00
68433;DHT22;55412;51.350;17.056;2023-07-22T10:41:27;22.70;46.30
68433;DHT22;55412;51.350;17.056;2023-07-22T10:43:55;22.80;45.90
68433;DHT22;55412;51.350;17.056;2023-07-22T10:46:35;22.70;45.60
68433;DHT22;55412;51.350;17.056;2023-07-22T10:49:15;22.80;45.80
68433;DHT22;55412;51.350;17.056;2023-07-22T10:51:49;22.80;46.40
68433;DHT22;55412;51.350;17.056;2023-07-22T10:54:37;22.80;45.20
68433;DHT22;55412;51.350;17.056;2023-07-22T10:57:25;22.80;45.40
68433;DHT22;55412;51.350;17.056;2023-07-22T10:59:51;22.90;45.80
68433;DHT22;55412;51.350;17.056;2023-07-22T11:02:25;22.90;45.40
68433;DHT22;55412;51.350;17.056;2023-07-22T11:04:58;22.90;45.20
68433;DHT22;55412;51.350;17.056;2023-07-22T11:07:41;22.90;45.00
68433;DHT22;55412;51.350;17.056;2023-07-22T11:10:17;23.00;45.40
68433;DHT22;55412;51.350;17.056;2023-07-22T11:12:45;23.00;44.80
68433;DHT22;55412;51.350;17.056;2023-07-22T11:15:15;23.00;44.10
68433;DHT22;55412;51.350;17.056;2023-07-22T11:17:42;23.10;44.10
68433;DHT22;55412;51.350;17.056;2023-07-22T11:20:08;23.10;43.60
68433;DHT22;55412;51.350;17.056;2023-07-22T11:22:35;23.10;43.90
68433;DHT22;55412;51.350;17.056;2023-07-22T11:25:06;23.10;43.20
68433;DHT22;55412;51.350;17.056;2023-07-22T11:27:34;23.20;44.30
68433;DHT22;55412;51.350;17.056;2023-07-22T11:30:03;23.20;43.80
68433;DHT22;55412;51.350;17.056;2023-07-22T11:32:30;23.20;44.50
68433;DHT22;55412;51.350;17.056;2023-07-22T11:34:57;23.30;41.90
68433;DHT22;55412;51.350;17.056;2023-07-22T11:37:27;23.30;42.20
68433;DHT22;55412;51.350;17.056;2023-07-22T11:40:03;23.30;41.00
68433;DHT22;55412;51.350;17.056;2023-07-22T11:42:29;23.30;40.20
68433;DHT22;55412;51.350;17.056;2023-07-22T11:44:56;23.30;41.70
68433;DHT22;55412;51.350;17.056;2023-07-22T11:47:29;23.30;40.90
68433;DHT22;55412;51.350;17.056;2023-07-22T11:49:56;23.30;40.70
68433;DHT22;55412;51.350;17.056;2023-07-22T11:52:23;23.30;41.20
68433;DHT22;55412;51.350;17.056;2023-07-22T11:54:49;23.30;41.00
68433;DHT22;55412;51.350;17.056;2023-07-22T11:57:23;23.30;41.80
68433;DHT22;55412;51.350;17.056;2023-07-22T11:59:51;23.40;41.50
68433;DHT22;55412;51.350;17.056;2023-07-22T12:02:19;23.40;42.10
68433;DHT22;55412;51.350;17.056;2023-07-22T12:05:05;23.40;41.30
68433;DHT22;55412;51.350;17.056;2023-07-22T12:07:33;23.50;41.00
68433;DHT22;55412;51.350;17.056;2023-07-22T12:10:05;23.50;40.90
68433;DHT22;55412;51.350;17.056;2023-07-22T12:12:40;23.50;40.70
68433;DHT22;55412;51.350;17.056;2023-07-22T12:15:16;23.60;39.70
68433;DHT22;55412;51.350;17.056;2023-07-22T12:17:53;23.60;39.40
68433;DHT22;55412;51.350;17.056;2023-07-22T12:20:28;23.60;39.50
68433;DHT22;55412;51.350;17.056;2023-07-22T12:22:57;23.60;39.80
68433;DHT22;55412;51.350;17.056;2023-07-22T12:25:28;23.60;39.90
68433;DHT22;55412;51.350;17.056;2023-07-22T12:27:55;23.60;40.30
68433;DHT22;55412;51.350;17.056;2023-07-22T12:30:21;23.60;42.60
68433;DHT22;55412;51.350;17.056;2023-07-22T12:32:47;23.60;40.60
68433;DHT22;55412;51.350;17.056;2023-07-22T12:35:13;23.60;41.00
68433;DHT22;55412;51.350;17.056;2023-07-22T12:37:40;23.60;41.00
68433;DHT22;55412;51.350;17.056;2023-07-22T12:40:06;23.70;40.70
68433;DHT22;55412;51.350;17.056;2023-07-22T12:42:35;23.70;39.80
68433;DHT22;55412;51.350;17.056;2023-07-22T12:45:05;23.70;39.40
68433;DHT22;55412;51.350;17.056;2023-07-22T12:47:32;23.70;39.50
68433;DHT22;55412;51.350;17.056;2023-07-22T12:49:58;23.70;38.90
68433;DHT22;55412;51.350;17.056;2023-07-22T12:52:24;23.70;38.80
68433;DHT22;55412;51.350;17.056;2023-07-22T12:54:50;23.70;39.70
68433;DHT22;55412;51.350;17.056;2023-07-22T12:57:17;23.70;39.90
68433;DHT22;55412;51.350;17.056;2023-07-22T12:59:43;23.70;39.40
68433;DHT22;55412;51.350;17.056;2023-07-22T13:02:09;23.70;39.40
68433;DHT22;55412;51.350;17.056;2023-07-22T13:04:35;23.80;39.60
68433;DHT22;55412;51.350;17.056;2023-07-22T13:07:01;23.70;38.80
68433;DHT22;55412;51.350;17.056;2023-07-22T13:09:27;23.70;38.60
68433;DHT22;55412;51.350;17.056;2023-07-22T13:11:54;23.60;38.50
68433;DHT22;55412;51.350;17.056;2023-07-22T13:14:30;23.60;39.30
68433;DHT22;55412;51.350;17.056;2023-07-22T13:16:56;23.60;39.40
68433;DHT22;55412;51.350;17.056;2023-07-22T13:19:26;23.60;39.80
68433;DHT22;55412;51.350;17.056;2023-07-22T13:21:53;23.50;40.00
68433;DHT22;55412;51.350;17.056;2023-07-22T13:24:23;23.50;40.30
68433;DHT22;55412;51.350;17.056;2023-07-22T13:26:53;23.50;39.40
68433;DHT22;55412;51.350;17.056;2023-07-22T13:29:19;23.50;39.50
68433;DHT22;55412;51.350;17.056;2023-07-22T13:31:45;23.50;40.10
68433;DHT22;55412;51.350;17.056;2023-07-22T13:34:11;23.50;40.60
68433;DHT22;55412;51.350;17.056;2023-07-22T13:36:38;23.50;40.50
68433;DHT22;55412;51.350;17.056;2023-07-22T13:39:04;23.50;39.80
68433;DHT22;55412;51.350;17.056;2023-07-22T13:41:30;23.50;40.10
68433;DHT22;55412;51.350;17.056;2023-07-22T13:43:56;23.50;39.40
68433;DHT22;55412;51.350;17.056;2023-07-22T13:46:22;23.50;39.70
68433;DHT22;55412;51.350;17.056;2023-07-22T13:48:48;23.50;38.70
68433;DHT22;55412;51.350;17.056;2023-07-22T13:51:15;23.60;39.20
68433;DHT22;55412;51.350;17.056;2023-07-22T13:53:41;23.50;39.10
68433;DHT22;55412;51.350;17.056;2023-07-22T13:56:07;23.50;39.20
68433;DHT22;55412;51.350;17.056;2023-07-22T13:58:33;23.50;39.40
68433;DHT22;55412;51.350;17.056;2023-07-22T14:00:59;23.40;39.20
68433;DHT22;55412;51.350;17.056;2023-07-22T14:03:25;23.40;39.60
68433;DHT22;55412;51.350;17.056;2023-07-22T14:05:51;23.40;39.70
68433;DHT22;55412;51.350;17.056;2023-07-22T14:08:18;23.40;39.80
68433;DHT22;55412;51.350;17.056;2023-07-22T14:10:44;23.40;40.40
68433;DHT22;55412;51.350;17.056;2023-07-22T14:13:10;23.50;39.90
68433;DHT22;55412;51.350;17.056;2023-07-22T14:15:36;23.50;39.30
68433;DHT22;55412;51.350;17.056;2023-07-22T14:18:02;23.50;39.00
68433;DHT22;55412;51.350;17.056;2023-07-22T14:20:29;23.50;40.30
68433;DHT22;55412;51.350;17.056;2023-07-22T14:22:56;23.60;38.80
68433;DHT22;55412;51.350;17.056;2023-07-22T14:25:23;23.60;39.40
68433;DHT22;55412;51.350;17.056;2023-07-22T14:27:49;23.60;38.10
68433;DHT22;55412;51.350;17.056;2023-07-22T14:30:16;23.70;38.30
68433;DHT22;55412;51.350;17.056;2023-07-22T14:32:42;23.70;38.80
68433;DHT22;55412;51.350;17.056;2023-07-22T14:35:11;23.70;38.50
68433;DHT22;55412;51.350;17.056;2023-07-22T14:37:37;23.70;37.50
68433;DHT22;55412;51.350;17.056;2023-07-22T14:40:06;23.70;38.50
68433;DHT22;55412;51.350;17.056;2023-07-22T14:42:34;23.70;38.70
68433;DHT22;55412;51.350;17.056;2023-07-22T14:45:00;23.70;38.00
68433;DHT22;55412;51.350;17.056;2023-07-22T14:47:26;23.80;37.80
68433;DHT22;55412;51.350;17.056;2023-07-22T14:49:54;23.80;37.90
68433;DHT22;55412;51.350;17.056;2023-07-22T14:52:20;23.80;38.40
68433;DHT22;55412;51.350;17.056;2023-07-22T14:54:47;23.80;38.70
68433;DHT22;55412;51.350;17.056;2023-07-22T14:57:26;23.80;38.40
68433;DHT22;55412;51.350;17.056;2023-07-22T14:59:55;23.80;38.90
68433;DHT22;55412;51.350;17.056;2023-07-22T15:02:24;23.80;38.50
68433;DHT22;55412;51.350;17.056;2023-07-22T15:04:50;23.80;38.30
68433;DHT22;55412;51.350;17.056;2023-07-22T15:07:18;23.80;38.20
68433;DHT22;55412;51.350;17.056;2023-07-22T15:09:57;23.80;38.00
68433;DHT22;55412;51.350;17.056;2023-07-22T15:12:24;23.80;37.50
68433;DHT22;55412;51.350;17.056;2023-07-22T15:14:52;23.80;37.40
68433;DHT22;55412;51.350;17.056;2023-07-22T15:17:20;23.80;37.50